Airfield :
LOGIN :

Register | Disclaimer

   EN    FR    IT 

 










Legend :    VFR   Marginal VFR   IFR   Intensive IFR   Very Intensive IFR
Visi :
Ceiling :
>= 8 km
>= 3000ft
5 to 8 km
1000 to 3000 ft
1500m to 5 km
500 to 1000 ft
800 to 1500m
200 to 500 ft
< 800m
< 200 ft
Symbols :   Thunderstorms  Fog  Heavy snow  Heavy precipitations  Wind > 20 kt
SIGMETs :     Misc.  Thunderstorms  Icing  Turbulence  Mountain Waves  Volcanic Ashes






- Airport Elevation : 870 ft
- IATA code : ETZ


LFJL - Metz Nancy Lorraine

CURRENT METAR :
  • 261130Z AUTO 11004KT 070V150 CAVOK 06/03 Q1021 NOSIG

EXPIRED METARs :
  • 261100Z AUTO 10004KT CAVOK 05/02 Q1021 NOSIG
  • 261030Z AUTO 07005KT CAVOK 04/02 Q1022 NOSIG
  • 261000Z AUTO 10005KT CAVOK 03/01 Q1022 NOSIG
  • 260930Z AUTO 10005KT CAVOK 03/01 Q1022 NOSIG

TAF TAF LFJL
Valid from the 26 at 12:00 until the 27 at 12:00 UTC


261100Z 2612/2712 09004KT CAVOK
BECMG 2618/2621 3000 BR
TEMPO 2700/2709 0500 FG VV///
BECMG 2709/2712 9999 NSW



MET'MAP, your aeronautical weather chart ! - Copyright ORBIFLY December 2007 - Disclaimer

ORBIFLY MET'MAP TEAM :

Programming & Development : Alexandra Zaïnal
Concept & original design : Baudouin d'Aumeries
Assistance for programming : Marc-Olivier Méhu
Technical & hardware support : Manuel Goepfert

Contact : metmap@orbifly.com




SOURCES & CREDITS :

   NOAA